createdAt,value
2022-08-11T00:00:34.731Z,18.58
2022-08-11T00:03:05.763Z,18.60
2022-08-11T00:05:43.141Z,18.44
2022-08-11T00:08:10.735Z,18.41
2022-08-11T00:10:38.474Z,18.36
2022-08-11T00:13:07.833Z,18.41
2022-08-11T00:15:41.201Z,18.35
2022-08-11T00:18:09.140Z,18.50
2022-08-11T00:20:40.334Z,18.49
2022-08-11T00:23:09.903Z,18.43
2022-08-11T00:25:42.782Z,18.38
2022-08-11T00:28:27.010Z,18.24
2022-08-11T00:30:55.934Z,18.15
2022-08-11T00:33:44.849Z,18.11
2022-08-11T00:36:16.278Z,18.07
2022-08-11T00:38:45.645Z,18.11
2022-08-11T00:41:22.819Z,18.12
2022-08-11T00:44:10.089Z,18.21
2022-08-11T00:46:55.192Z,18.15
2022-08-11T00:49:34.533Z,18.32
2022-08-11T00:52:17.716Z,18.27
2022-08-11T00:55:26.857Z,18.17
2022-08-11T00:58:45.168Z,18.22
2022-08-11T01:01:34.345Z,18.19
2022-08-11T01:04:27.628Z,18.27
2022-08-11T01:08:01.002Z,18.24
2022-08-11T01:10:34.894Z,18.23
2022-08-11T01:13:15.974Z,18.24
2022-08-11T01:16:01.716Z,18.12
2022-08-11T01:18:55.749Z,18.14
2022-08-11T01:22:16.386Z,18.16
2022-08-11T01:25:16.689Z,18.17
2022-08-11T01:28:24.582Z,18.08
2022-08-11T01:31:34.705Z,17.91
2022-08-11T01:34:59.986Z,17.93
2022-08-11T01:37:58.809Z,17.97
2022-08-11T01:40:58.247Z,17.97
2022-08-11T01:44:12.937Z,18.10
2022-08-11T01:46:46.737Z,18.01
2022-08-11T01:50:05.895Z,17.86
2022-08-11T01:52:18.731Z,17.88
2022-08-11T01:55:00.269Z,17.94
2022-08-11T01:57:37.963Z,17.82
2022-08-11T02:00:13.950Z,17.75
2022-08-11T02:02:54.069Z,17.72
2022-08-11T02:05:29.053Z,17.85
2022-08-11T02:08:08.307Z,17.87
2022-08-11T02:11:05.335Z,17.90
2022-08-11T02:13:42.214Z,17.89
2022-08-11T02:16:21.274Z,17.90
2022-08-11T02:19:12.088Z,17.91
2022-08-11T02:22:05.353Z,17.81
2022-08-11T02:24:37.996Z,17.66
2022-08-11T02:27:14.343Z,17.74
2022-08-11T02:29:49.660Z,17.68
2022-08-11T02:32:44.070Z,17.61
2022-08-11T02:35:19.261Z,17.56
2022-08-11T02:37:50.278Z,17.50
2022-08-11T02:40:25.085Z,17.58
2022-08-11T02:43:05.976Z,17.50
2022-08-11T02:45:46.333Z,17.52
2022-08-11T02:48:41.957Z,17.65
2022-08-11T02:51:15.066Z,17.83
2022-08-11T02:53:58.039Z,17.95
2022-08-11T02:56:37.604Z,17.73
2022-08-11T02:59:32.952Z,17.81
2022-08-11T03:02:14.498Z,17.71
2022-08-11T03:04:51.425Z,17.67
2022-08-11T03:07:29.508Z,17.67
2022-08-11T03:10:03.744Z,17.70
2022-08-11T03:12:55.936Z,17.80
2022-08-11T03:16:06.955Z,17.86
2022-08-11T03:18:41.385Z,17.81
2022-08-11T03:21:18.277Z,17.92
2022-08-11T03:23:53.172Z,17.97
2022-08-11T03:26:28.195Z,18.01
2022-08-11T03:29:04.794Z,17.95
2022-08-11T03:31:37.612Z,17.94
2022-08-11T03:34:09.242Z,18.03
2022-08-11T03:37:17.680Z,17.98
2022-08-11T03:40:11.453Z,17.98
2022-08-11T03:42:44.185Z,18.05
2022-08-11T03:45:25.113Z,18.10
2022-08-11T03:48:14.059Z,18.08
2022-08-11T03:51:06.547Z,18.03
2022-08-11T03:53:50.495Z,18.10
2022-08-11T03:56:42.438Z,17.91
2022-08-11T03:59:51.765Z,17.86
2022-08-11T04:02:35.308Z,17.88
2022-08-11T04:06:02.575Z,17.81
2022-08-11T04:09:01.370Z,17.81
2022-08-11T04:11:55.987Z,17.78
2022-08-11T04:15:06.668Z,17.64
2022-08-11T04:18:05.373Z,17.75
2022-08-11T04:20:50.033Z,17.66
2022-08-11T04:24:34.405Z,17.67
2022-08-11T04:26:42.599Z,17.67
2022-08-11T04:29:32.311Z,17.61
2022-08-11T04:32:21.402Z,17.60
2022-08-11T04:35:08.390Z,17.48
2022-08-11T04:38:09.064Z,17.38
2022-08-11T04:40:51.273Z,17.39
2022-08-11T04:44:12.089Z,17.39
2022-08-11T04:47:06.130Z,17.52
2022-08-11T04:50:23.750Z,17.46
2022-08-11T04:53:29.282Z,17.35
2022-08-11T04:56:33.397Z,17.30
2022-08-11T04:59:42.337Z,17.27
2022-08-11T05:03:09.806Z,17.26
2022-08-11T05:06:06.428Z,17.23
2022-08-11T05:09:08.920Z,17.16
2022-08-11T05:11:57.681Z,17.21
2022-08-11T05:14:54.355Z,17.38
2022-08-11T05:17:53.307Z,17.44
2022-08-11T05:20:40.229Z,17.42
2022-08-11T05:23:28.558Z,17.47
2022-08-11T05:26:47.501Z,17.66
2022-08-11T05:29:47.474Z,17.83
2022-08-11T05:32:35.874Z,17.88
2022-08-11T05:35:05.997Z,17.96
2022-08-11T05:37:41.471Z,18.09
2022-08-11T05:40:31.238Z,18.42
2022-08-11T05:43:20.018Z,18.53
2022-08-11T05:46:16.057Z,18.74
2022-08-11T05:49:02.397Z,18.93
2022-08-11T05:51:55.351Z,19.02
2022-08-11T05:54:46.684Z,19.08
2022-08-11T05:57:48.663Z,19.02
2022-08-11T06:00:10.581Z,18.92
2022-08-11T06:02:42.372Z,19.08
2022-08-11T06:05:10.466Z,19.08
2022-08-11T06:07:48.912Z,19.04
2022-08-11T06:10:26.997Z,18.99
2022-08-11T06:12:57.366Z,19.04
2022-08-11T06:15:25.975Z,19.04
2022-08-11T06:17:55.047Z,19.14
2022-08-11T06:20:24.346Z,19.25
2022-08-11T06:22:59.387Z,19.25
2022-08-11T06:25:31.675Z,19.25
2022-08-11T06:28:00.519Z,19.30
2022-08-11T06:30:39.319Z,19.31
2022-08-11T06:33:09.949Z,19.34
2022-08-11T06:35:48.395Z,19.42
2022-08-11T06:38:28.311Z,19.43
2022-08-11T06:41:18.203Z,19.44
2022-08-11T06:43:55.853Z,19.57
2022-08-11T06:46:31.201Z,19.59
2022-08-11T06:49:02.749Z,19.67
2022-08-11T06:51:32.551Z,19.71
2022-08-11T06:54:04.364Z,19.73
2022-08-11T06:57:18.619Z,19.84
2022-08-11T07:00:03.433Z,19.93
2022-08-11T07:02:36.379Z,19.96
2022-08-11T07:05:08.450Z,20.10
2022-08-11T07:09:00.927Z,20.19
2022-08-11T07:12:12.709Z,20.40
2022-08-11T07:15:05.678Z,20.45
2022-08-11T07:17:38.335Z,20.47
2022-08-11T07:20:26.029Z,20.53
2022-08-11T07:23:16.279Z,20.54
2022-08-11T07:26:05.565Z,20.67
2022-08-11T07:28:53.580Z,20.77
2022-08-11T07:31:29.972Z,20.89
2022-08-11T07:34:08.310Z,20.96
2022-08-11T07:36:40.230Z,20.96
2022-08-11T07:39:10.854Z,21.06
2022-08-11T07:41:39.169Z,21.21
2022-08-11T07:44:09.393Z,21.26
2022-08-11T07:47:00.933Z,21.30
2022-08-11T07:49:50.214Z,21.27
2022-08-11T07:52:30.631Z,21.52
2022-08-11T07:55:00.547Z,21.88
2022-08-11T07:58:14.552Z,22.31
2022-08-11T08:00:56.570Z,23.25
2022-08-11T08:03:54.086Z,23.90
2022-08-11T08:06:41.546Z,24.95
2022-08-11T08:09:27.799Z,25.45
2022-08-11T08:12:13.946Z,26.42
2022-08-11T08:15:01.145Z,25.85
2022-08-11T08:18:09.248Z,25.87
2022-08-11T08:20:39.185Z,26.23
2022-08-11T08:23:07.043Z,27.03
2022-08-11T08:25:35.423Z,26.46
2022-08-11T08:28:07.303Z,26.65
2022-08-11T08:30:52.667Z,27.27
2022-08-11T08:33:22.264Z,27.07
2022-08-11T08:36:11.783Z,27.29
2022-08-11T08:38:41.291Z,27.35
2022-08-11T08:41:08.999Z,28.15
2022-08-11T08:43:49.005Z,27.75
2022-08-11T08:46:19.416Z,27.80
2022-08-11T08:48:48.258Z,28.35
2022-08-11T08:52:02.459Z,27.94
2022-08-11T08:54:29.216Z,28.69
2022-08-11T08:56:57.438Z,27.79
2022-08-11T08:59:26.752Z,27.74
2022-08-11T09:02:13.940Z,27.77
2022-08-11T09:04:44.150Z,28.60
2022-08-11T09:07:15.449Z,28.65
2022-08-11T09:09:43.815Z,29.01
2022-08-11T09:12:12.125Z,28.37
2022-08-11T09:15:20.289Z,27.95
2022-08-11T09:17:50.258Z,29.53
2022-08-11T09:20:19.839Z,28.20
2022-08-11T09:26:15.421Z,28.18
2022-08-11T09:28:43.080Z,28.26
2022-08-11T09:31:13.361Z,27.80
2022-08-11T09:33:42.789Z,28.77
2022-08-11T09:36:31.054Z,28.90
2022-08-11T09:39:19.542Z,28.77
2022-08-11T09:42:00.853Z,29.36
2022-08-11T09:44:50.544Z,28.94
2022-08-11T09:47:21.512Z,29.00
2022-08-11T09:49:49.448Z,29.65
2022-08-11T09:52:18.577Z,30.25
2022-08-11T09:54:49.431Z,29.65
2022-08-11T09:57:37.930Z,30.64
2022-08-11T10:00:12.622Z,30.85
2022-08-11T10:02:42.665Z,31.32
2022-08-11T10:05:30.423Z,31.40
2022-08-11T10:07:58.372Z,31.00
2022-08-11T10:10:26.980Z,31.62
2022-08-11T10:12:57.994Z,31.17
2022-08-11T10:15:35.290Z,30.49
2022-08-11T10:18:24.866Z,31.20
2022-08-11T10:20:55.595Z,30.58
2022-08-11T10:24:00.534Z,30.09
2022-08-11T10:26:49.589Z,29.93
2022-08-11T10:29:37.566Z,30.72
2022-08-11T10:32:32.366Z,31.56
2022-08-11T10:35:01.489Z,31.26
2022-08-11T10:38:07.220Z,31.55
2022-08-11T10:40:22.724Z,32.04
2022-08-11T10:43:07.030Z,32.42
2022-08-11T10:45:54.696Z,32.15
2022-08-11T10:48:22.787Z,31.45
2022-08-11T10:51:10.194Z,31.21
2022-08-11T10:53:57.677Z,32.06
2022-08-11T10:56:46.497Z,31.86
2022-08-11T10:59:16.110Z,31.59
2022-08-11T11:01:44.969Z,32.08
2022-08-11T11:04:14.557Z,32.61
2022-08-11T11:06:50.475Z,33.16
2022-08-11T11:09:20.088Z,32.58
2022-08-11T11:12:09.400Z,32.47
2022-08-11T11:14:59.396Z,33.51
2022-08-11T11:17:47.864Z,32.84
2022-08-11T11:20:36.301Z,31.82
2022-08-11T11:23:13.886Z,31.65
2022-08-11T11:26:16.876Z,32.22
2022-08-11T11:29:20.575Z,32.34
2022-08-11T11:32:11.661Z,33.06
2022-08-11T11:35:00.721Z,33.62
2022-08-11T11:37:30.546Z,33.37
2022-08-11T11:39:58.039Z,33.53
2022-08-11T11:42:25.925Z,33.99
2022-08-11T11:44:55.987Z,34.34
2022-08-11T11:47:25.774Z,34.33
2022-08-11T11:49:54.332Z,34.10
2022-08-11T11:52:22.616Z,34.38
2022-08-11T11:54:53.422Z,32.37
2022-08-11T11:57:40.394Z,32.94
2022-08-11T12:00:33.477Z,34.54
2022-08-11T12:03:05.140Z,32.96
2022-08-11T12:05:34.516Z,33.71
2022-08-11T12:08:18.040Z,33.78
2022-08-11T12:10:47.491Z,33.53
2022-08-11T12:13:34.784Z,34.18
2022-08-11T12:16:32.981Z,33.65
2022-08-11T12:18:55.220Z,32.54
2022-08-11T12:21:23.742Z,33.18
2022-08-11T12:24:09.634Z,32.45
2022-08-11T12:27:15.801Z,32.31
2022-08-11T12:29:49.107Z,33.28
2022-08-11T12:32:22.938Z,33.09
2022-08-11T12:34:51.343Z,32.73
2022-08-11T12:37:24.452Z,32.90
2022-08-11T12:40:49.411Z,32.15
2022-08-11T12:43:24.414Z,31.88
2022-08-11T12:46:08.135Z,32.72
2022-08-11T12:49:00.986Z,32.31
2022-08-11T12:52:06.743Z,32.47
2022-08-11T12:54:51.649Z,32.45
2022-08-11T12:57:45.355Z,32.92
2022-08-11T13:00:31.356Z,33.04
2022-08-11T13:03:17.351Z,32.89
2022-08-11T13:05:46.850Z,32.07
2022-08-11T13:08:16.572Z,31.86
2022-08-11T13:11:03.690Z,32.50
2022-08-11T13:13:55.967Z,32.68
2022-08-11T13:16:20.817Z,32.57
2022-08-11T13:18:48.748Z,33.76
2022-08-11T13:21:20.644Z,31.83
2022-08-11T13:24:00.485Z,31.79
2022-08-11T13:26:43.067Z,31.88
2022-08-11T13:29:18.040Z,32.05
2022-08-11T13:31:46.268Z,32.12
2022-08-11T13:34:14.813Z,31.97
2022-08-11T13:36:41.691Z,32.11
2022-08-11T13:39:10.895Z,31.91
2022-08-11T13:41:41.203Z,32.45
2022-08-11T13:44:10.364Z,32.69
2022-08-11T13:46:39.736Z,32.47
2022-08-11T13:49:10.695Z,32.30
2022-08-11T13:51:40.055Z,31.86
2022-08-11T13:54:10.343Z,30.80
2022-08-11T13:56:41.831Z,31.36
2022-08-11T13:59:09.420Z,30.79
2022-08-11T14:02:21.494Z,31.57
2022-08-11T14:04:33.442Z,31.65
2022-08-11T14:07:05.398Z,32.02
2022-08-11T14:09:37.729Z,30.99
2022-08-11T14:12:31.726Z,32.00
2022-08-11T14:15:07.857Z,31.54
2022-08-11T14:17:48.413Z,31.71
2022-08-11T14:20:38.368Z,31.17
2022-08-11T14:23:06.535Z,32.02
2022-08-11T14:26:00.364Z,31.97
2022-08-11T14:28:34.146Z,31.82
2022-08-11T14:31:05.358Z,31.40
2022-08-11T14:34:00.346Z,30.78
2022-08-11T14:36:23.222Z,30.64
2022-08-11T14:38:50.856Z,32.09
2022-08-11T14:42:11.399Z,30.92
2022-08-11T14:44:44.719Z,30.25
2022-08-11T14:47:23.293Z,30.80
2022-08-11T14:49:58.267Z,31.06
2022-08-11T14:52:39.117Z,30.49
2022-08-11T14:55:27.622Z,30.59
2022-08-11T14:57:57.225Z,30.23
2022-08-11T15:00:34.419Z,30.19
2022-08-11T15:03:10.667Z,30.59
2022-08-11T15:05:41.570Z,31.46
2022-08-11T15:08:09.304Z,31.86
2022-08-11T15:10:37.145Z,31.61
2022-08-11T15:13:06.360Z,32.06
2022-08-11T15:15:53.326Z,31.74
2022-08-11T15:18:24.401Z,32.31
2022-08-11T15:21:10.284Z,32.58
2022-08-11T15:23:58.065Z,32.43
2022-08-11T15:26:49.646Z,32.67
2022-08-11T15:29:41.004Z,32.19
2022-08-11T15:32:19.635Z,32.20
2022-08-11T15:35:09.420Z,32.22
2022-08-11T15:37:37.829Z,32.98
2022-08-11T15:40:32.157Z,33.24
2022-08-11T15:43:27.068Z,33.86
2022-08-11T15:46:02.605Z,33.89
2022-08-11T15:48:36.245Z,33.63
2022-08-11T15:51:09.643Z,34.23
2022-08-11T15:53:42.546Z,33.87
2022-08-11T15:56:12.167Z,33.27
2022-08-11T15:59:40.609Z,32.53
2022-08-11T16:02:31.781Z,30.38
2022-08-11T16:05:02.210Z,29.37
2022-08-11T16:07:40.384Z,28.46
2022-08-11T16:10:11.103Z,28.12
2022-08-11T16:13:16.973Z,28.01
2022-08-11T16:16:06.209Z,27.85
2022-08-11T16:18:43.100Z,27.70
2022-08-11T16:21:34.095Z,27.57
2022-08-11T16:24:01.789Z,27.66
2022-08-11T16:27:08.818Z,27.54
2022-08-11T16:29:19.855Z,27.38
2022-08-11T16:32:08.019Z,27.37
2022-08-11T16:34:58.600Z,27.19
2022-08-11T16:37:45.400Z,27.02
2022-08-11T16:40:13.643Z,26.82
2022-08-11T16:43:10.158Z,26.91
2022-08-11T16:45:58.627Z,26.60
2022-08-11T16:48:33.425Z,26.66
2022-08-11T16:51:06.379Z,26.59
2022-08-11T16:53:45.926Z,26.46
2022-08-11T16:56:23.479Z,26.34
2022-08-11T16:59:13.468Z,26.41
2022-08-11T17:01:42.861Z,26.34
2022-08-11T17:04:52.860Z,26.26
2022-08-11T17:07:43.184Z,26.16
2022-08-11T17:10:52.563Z,25.87
2022-08-11T17:13:28.216Z,26.00
2022-08-11T17:16:07.406Z,25.88
2022-08-11T17:18:41.066Z,25.87
2022-08-11T17:21:14.042Z,25.85
2022-08-11T17:23:47.225Z,25.78
2022-08-11T17:26:20.021Z,25.62
2022-08-11T17:28:51.485Z,25.47
2022-08-11T17:31:39.156Z,25.36
2022-08-11T17:34:26.915Z,25.39
2022-08-11T17:36:55.682Z,25.19
2022-08-11T17:39:30.106Z,25.09
2022-08-11T17:42:17.971Z,25.16
2022-08-11T17:45:04.169Z,25.14
2022-08-11T17:47:51.626Z,25.11
2022-08-11T17:50:19.683Z,25.02
2022-08-11T17:53:06.327Z,24.90
2022-08-11T17:55:54.517Z,24.86
2022-08-11T17:58:41.285Z,24.83
2022-08-11T18:01:10.989Z,24.65
2022-08-11T18:03:40.733Z,24.60
2022-08-11T18:06:12.220Z,24.51
2022-08-11T18:09:02.445Z,24.39
2022-08-11T18:12:10.836Z,24.28
2022-08-11T18:14:58.764Z,24.22
2022-08-11T18:17:44.013Z,24.16
2022-08-11T18:20:29.364Z,24.13
2022-08-11T18:23:16.820Z,24.04
2022-08-11T18:26:07.104Z,23.89
2022-08-11T18:29:02.143Z,23.77
2022-08-11T18:31:51.500Z,23.64
2022-08-11T18:34:43.395Z,23.50
2022-08-11T18:37:37.259Z,23.46
2022-08-11T18:40:27.657Z,23.24
2022-08-11T18:43:15.895Z,23.13
2022-08-11T18:46:07.809Z,23.07
2022-08-11T18:48:57.689Z,23.02
2022-08-11T18:51:45.082Z,23.02
2022-08-11T18:54:32.444Z,22.92
2022-08-11T18:57:22.400Z,22.92
2022-08-11T19:00:10.686Z,22.92
2022-08-11T19:02:59.434Z,22.91
2022-08-11T19:06:31.627Z,22.83
2022-08-11T19:08:58.593Z,22.83
2022-08-11T19:11:45.595Z,22.73
2022-08-11T19:14:31.957Z,22.55
2022-08-11T19:17:43.971Z,22.52
2022-08-11T19:20:30.130Z,22.42
2022-08-11T19:23:17.589Z,22.38
2022-08-11T19:26:05.491Z,22.24
2022-08-11T19:28:53.397Z,22.18
2022-08-11T19:31:44.373Z,22.14
2022-08-11T19:34:31.616Z,22.09
2022-08-11T19:37:24.059Z,22.02
2022-08-11T19:40:11.769Z,21.89
2022-08-11T19:42:58.692Z,21.83
2022-08-11T19:45:45.822Z,21.73
2022-08-11T19:48:38.906Z,21.68
2022-08-11T19:51:25.049Z,21.63
2022-08-11T19:54:12.719Z,21.60
2022-08-11T19:56:59.833Z,21.62
2022-08-11T19:59:46.078Z,21.49
2022-08-11T20:02:31.497Z,21.50
2022-08-11T20:05:16.690Z,21.39
2022-08-11T20:08:02.570Z,21.53
2022-08-11T20:10:52.101Z,21.50
2022-08-11T20:13:41.610Z,21.48
2022-08-11T20:16:31.290Z,21.32
2022-08-11T20:19:18.587Z,21.36
2022-08-11T20:22:09.284Z,21.40
2022-08-11T20:24:57.433Z,21.39
2022-08-11T20:27:45.442Z,21.40
2022-08-11T20:30:31.691Z,21.34
2022-08-11T20:33:17.569Z,21.30
2022-08-11T20:36:04.710Z,21.27
2022-08-11T20:38:52.597Z,21.24
2022-08-11T20:41:58.236Z,21.12
2022-08-11T20:44:47.581Z,21.10
2022-08-11T20:47:59.354Z,21.06
2022-08-11T20:50:45.863Z,21.01
2022-08-11T20:53:36.097Z,21.01
2022-08-11T20:56:28.633Z,20.97
2022-08-11T20:59:18.358Z,20.93
2022-08-11T21:02:10.683Z,20.91
2022-08-11T21:05:00.071Z,20.84
2022-08-11T21:07:56.838Z,20.74
2022-08-11T21:10:46.967Z,20.75
2022-08-11T21:13:36.967Z,20.67
2022-08-11T21:16:27.236Z,20.66
2022-08-11T21:19:59.629Z,20.57
2022-08-11T21:22:31.237Z,20.53
2022-08-11T21:25:18.599Z,20.64
2022-08-11T21:28:07.288Z,20.81
2022-08-11T21:30:57.754Z,20.93
2022-08-11T21:33:46.428Z,20.93
2022-08-11T21:36:33.750Z,20.96
2022-08-11T21:39:24.966Z,21.00
2022-08-11T21:42:12.563Z,20.94
2022-08-11T21:45:00.460Z,20.88
2022-08-11T21:47:47.277Z,20.93
2022-08-11T21:50:32.673Z,20.99
2022-08-11T21:53:19.957Z,20.97
2022-08-11T21:56:06.784Z,21.04
2022-08-11T21:58:52.726Z,21.01
2022-08-11T22:01:39.490Z,20.97
2022-08-11T22:04:25.299Z,21.00
2022-08-11T22:07:12.280Z,21.04
2022-08-11T22:09:59.331Z,21.00
2022-08-11T22:12:45.462Z,21.12
2022-08-11T22:15:31.969Z,21.13
2022-08-11T22:18:17.163Z,21.08
2022-08-11T22:21:03.437Z,21.02
2022-08-11T22:23:51.861Z,20.90
2022-08-11T22:26:41.331Z,20.83
2022-08-11T22:29:50.041Z,20.72
2022-08-11T22:32:33.658Z,20.62
2022-08-11T22:35:20.625Z,20.63
2022-08-11T22:38:06.675Z,20.61
2022-08-11T22:40:52.643Z,20.58
2022-08-11T22:43:39.524Z,20.55
2022-08-11T22:46:25.000Z,20.54
2022-08-11T22:49:11.995Z,20.57
2022-08-11T22:51:58.823Z,20.49
2022-08-11T22:54:45.259Z,20.41
2022-08-11T22:57:33.472Z,20.42
2022-08-11T23:00:20.778Z,20.37
2022-08-11T23:03:07.185Z,20.21
2022-08-11T23:05:56.880Z,20.15
2022-08-11T23:08:43.240Z,20.13
2022-08-11T23:12:04.770Z,20.00
2022-08-11T23:14:36.045Z,20.02
2022-08-11T23:17:23.026Z,19.96
2022-08-11T23:20:26.685Z,19.84
2022-08-11T23:23:14.253Z,19.82
2022-08-11T23:26:01.498Z,19.68
2022-08-11T23:28:47.868Z,19.54
2022-08-11T23:31:51.008Z,19.48
2022-08-11T23:35:03.689Z,19.37
2022-08-11T23:37:46.540Z,19.28
2022-08-11T23:40:31.856Z,19.23
2022-08-11T23:43:17.269Z,19.22
2022-08-11T23:46:02.545Z,19.20
2022-08-11T23:48:49.819Z,19.10
2022-08-11T23:51:40.997Z,19.04
2022-08-11T23:54:28.220Z,19.10
2022-08-11T23:57:13.974Z,19.16
2022-08-11T23:59:59.456Z,19.33
